PARDEE (PAR)

Elevation: 568' · MOKELUMNE R basin · Operator: East Bay Municipal Utility District

Provisional data, subject to change.
Query executed Wednesday at 3:21:14   clock

Select a sensor type for a plot of data.
Note: Reservoir Flows are daily averages.

Earlier

Date RES ELE    STORAGE    RES CHG    OUTFLOW    INFLOW    PPT INC   
 FEET   AF   AF   CFS   CFS   INCHES  
08/03/2015 555.32 171717 65 146 334 0.00
08/04/2015 555.22 171513 -204 151 145 0.00
08/05/2015 554.32 169693 -1820 971 394 0.00
08/06/2015 553.44 167926 -1767 961 -83 0.00
08/07/2015 552.84 166728 -1198 642 -285 0.00
08/08/2015 552.91 166879 151 141 -263 0.00
08/09/2015 552.93 166919 40 143 219 0.00
08/10/2015 552.91 166875 -44 145 168 0.00
08/11/2015 552.95 166954 79 146 131 0.00
08/12/2015 552.95 166951 -3 146 193 0.00
08/13/2015 552.97 166994 43 142 158 0.00
08/14/2015 552.98 167014 20 140 167 0.00
08/15/2015 553.21 167466 452 147 171 0.00
08/16/2015 553.53 168118 652 147 396 0.00
08/17/2015 553.06 167162 -956 975 703 0.00
08/18/2015 553.31 167662 500 147 -79 0.00
08/19/2015 552.69 166437 -1225 968 674 0.00
08/20/2015 552.80 166648 211 147 -193 0.00
08/21/2015 552.08 165211 -1437 976 578 0.00
08/22/2015 552.18 165422 211 147 -259 0.00
08/23/2015 552.26 165573 151 147 242 0.00
08/24/2015 551.53 164130 -1443 978 547 0.00
08/25/2015 551.60 164280 150 147 -275 0.00
08/26/2015 550.90 162890 -1390 973 556 0.00
08/27/2015 551.09 163263 373 134 -257 0.00
08/28/2015 550.56 162235 -1028 984 699 0.00
08/29/2015 550.76 162612 377 146 -139 0.00
08/30/2015 550.87 162835 223 146 297 0.00
08/31/2015 550.95 162984 149 146 227 0.00
09/01/2015 -- -- -- 146 223 --
09/02/2015 -- -- -- -- -- --

Later | Latest

Warning! This data is preliminary and subject to revision.

Show PAR Map | Plot PAR Data | 1 Month PAR Data | Real-Time PAR Data | PAR Info